Time;durP1;ratioP1;P1;durP2;ratioP2;P2;SDS_P1;SDS_P2;PMS_P1;PMS_P2;Temp;Humidity;BMP_temperature;BMP_pressure;BME280_temperature;BME280_humidity;BME280_pressure;Samples;Min_cycle;Max_cycle;Signal;HPM_P1;HPM_P2
2023/09/08 00:02:00;;;;;;;12.57;7.20;;;20.90;99.90;;;;;;5033078;28;20219;-89
2023/09/08 00:04:26;;;;;;;10.35;7.45;;;20.90;99.90;;;;;;5032981;28;20485;-89
2023/09/08 00:06:51;;;;;;;11.45;7.55;;;20.90;99.90;;;;;;5016306;28;20096;-90
2023/09/08 00:09:17;;;;;;;9.77;7.43;;;20.90;99.90;;;;;;5016242;28;20045;-89
2023/09/08 00:11:43;;;;;;;10.35;7.20;;;20.80;99.90;;;;;;5032891;28;20038;-90
2023/09/08 00:14:08;;;;;;;11.05;8.23;;;20.80;99.90;;;;;;5016284;28;20045;-89
2023/09/08 00:16:34;;;;;;;10.93;6.97;;;20.70;99.90;;;;;;5016020;28;20407;-90
2023/09/08 00:18:59;;;;;;;10.73;7.53;;;20.70;99.90;;;;;;5032622;28;20044;-90
2023/09/08 00:21:26;;;;;;;12.73;7.40;;;20.70;99.90;;;;;;5032820;28;20044;-90
2023/09/08 00:23:52;;;;;;;11.90;7.70;;;20.60;99.90;;;;;;5032700;28;20041;-90
2023/09/08 00:26:18;;;;;;;10.73;7.13;;;20.60;99.90;;;;;;5032724;28;20432;-89
2023/09/08 00:28:43;;;;;;;11.63;8.15;;;20.60;99.90;;;;;;5032464;28;20029;-90
2023/09/08 00:31:09;;;;;;;11.93;7.72;;;20.60;99.90;;;;;;5032793;28;20049;-90
2023/09/08 00:33:35;;;;;;;11.20;7.70;;;20.50;99.90;;;;;;5032717;28;20497;-90
2023/09/08 00:36:00;;;;;;;12.65;8.05;;;20.40;99.90;;;;;;5032143;28;20080;-90
2023/09/08 00:38:26;;;;;;;10.45;7.75;;;20.40;99.90;;;;;;5015375;28;20041;-90
2023/09/08 00:40:52;;;;;;;11.55;7.60;;;20.40;99.90;;;;;;5032510;28;20033;-89
2023/09/08 00:43:18;;;;;;;11.65;7.80;;;20.40;99.90;;;;;;5015952;28;20045;-89
2023/09/08 00:45:45;;;;;;;10.18;7.60;;;20.30;99.90;;;;;;5032216;28;20558;-89
2023/09/08 00:48:11;;;;;;;11.27;7.22;;;20.20;99.90;;;;;;5032092;28;20049;-90
2023/09/08 00:50:37;;;;;;;11.13;8.38;;;20.20;99.90;;;;;;5031396;28;20053;-89
2023/09/08 00:53:04;;;;;;;11.02;7.93;;;20.20;99.90;;;;;;5032254;28;20042;-89
2023/09/08 00:55:31;;;;;;;10.40;7.60;;;20.10;99.90;;;;;;5015940;28;20444;-89
2023/09/08 00:57:58;;;;;;;10.63;7.50;;;20.10;99.90;;;;;;5015583;28;20038;-89
2023/09/08 01:00:24;;;;;;;11.30;7.28;;;20.10;99.90;;;;;;5031959;28;20037;-90
2023/09/08 01:02:50;;;;;;;12.35;8.02;;;20.10;99.90;;;;;;5014944;28;20034;-89
2023/09/08 01:05:16;;;;;;;11.55;8.25;;;20.00;99.90;;;;;;5031836;28;20033;-89
2023/09/08 01:07:42;;;;;;;10.50;7.97;;;20.00;99.90;;;;;;5031619;28;20064;-90
2023/09/08 01:10:08;;;;;;;10.00;7.57;;;20.00;99.90;;;;;;5015885;28;20033;-90
2023/09/08 01:12:34;;;;;;;11.60;7.88;;;19.90;99.90;;;;;;5031917;28;20042;-90
2023/09/08 01:15:01;;;;;;;13.05;8.23;;;19.90;99.90;;;;;;5032068;28;20036;-90
2023/09/08 01:17:27;;;;;;;12.10;8.38;;;19.90;99.90;;;;;;5031170;28;20069;-89
2023/09/08 01:19:55;;;;;;;11.30;8.45;;;19.80;99.90;;;;;;5047585;28;20453;-90
2023/09/08 01:23:02;;;;;;;11.07;8.15;;;19.80;99.90;;;;;;5031660;28;20057;-89
2023/09/08 01:25:29;;;;;;;12.57;9.27;;;19.80;99.90;;;;;;5031338;28;20041;-89
2023/09/08 01:27:58;;;;;;;11.43;8.48;;;19.70;99.90;;;;;;5031329;28;20520;-89
2023/09/08 01:30:26;;;;;;;12.75;8.95;;;19.70;99.90;;;;;;5014872;28;20045;-89
2023/09/08 01:32:54;;;;;;;12.38;8.13;;;19.70;99.90;;;;;;5031340;28;20052;-89
2023/09/08 01:35:20;;;;;;;15.10;9.15;;;19.70;99.90;;;;;;5031267;28;20037;-89
2023/09/08 01:37:46;;;;;;;11.55;8.75;;;19.70;99.90;;;;;;5014758;28;20124;-89
2023/09/08 01:40:12;;;;;;;11.93;8.82;;;19.60;99.90;;;;;;5021960;28;20052;-89
2023/09/08 01:42:38;;;;;;;13.95;9.20;;;19.60;99.90;;;;;;5050905;28;20040;-89
2023/09/08 01:45:04;;;;;;;11.90;8.70;;;19.60;99.90;;;;;;5033659;28;20531;-89
2023/09/08 01:47:31;;;;;;;12.35;8.80;;;19.60;99.90;;;;;;5050145;28;20075;-88
2023/09/08 01:49:56;;;;;;;13.43;8.98;;;19.50;99.90;;;;;;5050611;28;20470;-89
2023/09/08 01:52:22;;;;;;;12.63;9.55;;;19.50;99.90;;;;;;5051111;28;20575;-89
2023/09/08 01:54:48;;;;;;;12.25;9.13;;;19.50;99.90;;;;;;5050970;28;20096;-89
2023/09/08 01:57:13;;;;;;;12.10;8.90;;;19.50;99.90;;;;;;5050740;28;20040;-89
2023/09/08 01:59:39;;;;;;;11.23;8.75;;;19.40;99.90;;;;;;5050521;28;20036;-89
2023/09/08 02:02:06;;;;;;;10.80;8.55;;;19.40;99.90;;;;;;5050783;28;20037;-89
2023/09/08 02:04:31;;;;;;;11.10;8.68;;;19.40;99.90;;;;;;5034581;28;20049;-89
2023/09/08 02:06:57;;;;;;;11.23;8.32;;;19.40;99.90;;;;;;5051130;28;20051;-89
2023/09/08 02:09:36;;;;;;;11.90;8.50;;;19.40;99.90;;;;;;5033951;28;20488;-89
2023/09/08 02:12:03;;;;;;;13.77;8.88;;;19.40;99.90;;;;;;5050553;28;20164;-89
2023/09/08 02:14:28;;;;;;;12.02;8.93;;;19.30;99.90;;;;;;5050665;28;20124;-89
2023/09/08 02:16:55;;;;;;;13.18;9.35;;;19.30;99.90;;;;;;5050737;28;20073;-89
2023/09/08 02:19:20;;;;;;;12.20;8.98;;;19.30;99.90;;;;;;5050108;28;20123;-89
2023/09/08 02:21:46;;;;;;;12.73;9.75;;;19.30;99.90;;;;;;5050649;28;20097;-89
2023/09/08 02:24:12;;;;;;;11.80;8.77;;;19.20;99.90;;;;;;5050507;28;20037;-88
2023/09/08 02:26:41;;;;;;;11.18;9.25;;;19.30;99.90;;;;;;5033384;28;20070;-88
2023/09/08 02:29:07;;;;;;;13.00;9.23;;;19.20;99.90;;;;;;5033539;28;20037;-88
2023/09/08 02:31:33;;;;;;;12.80;9.60;;;19.20;99.90;;;;;;5050304;28;20106;-89
2023/09/08 02:33:59;;;;;;;13.48;10.50;;;19.20;99.90;;;;;;5050379;28;20029;-88
2023/09/08 02:36:27;;;;;;;12.05;9.27;;;19.10;99.90;;;;;;5049877;28;20120;-89
2023/09/08 02:38:54;;;;;;;11.95;9.70;;;19.10;99.90;;;;;;5050026;28;20044;-89
2023/09/08 02:41:20;;;;;;;14.27;9.65;;;19.10;99.90;;;;;;5050274;28;20056;-89
2023/09/08 02:43:45;;;;;;;11.73;9.95;;;19.10;99.90;;;;;;5050739;28;20037;-89
2023/09/08 02:46:11;;;;;;;12.15;9.32;;;19.00;99.90;;;;;;5034073;28;20132;-89
2023/09/08 02:48:37;;;;;;;12.43;9.77;;;19.00;99.90;;;;;;5049974;28;20037;-88
2023/09/08 02:51:03;;;;;;;12.52;9.63;;;19.00;99.90;;;;;;5051633;28;20374;-89
2023/09/08 02:53:29;;;;;;;13.65;9.60;;;19.00;99.90;;;;;;5037581;28;20515;-88
2023/09/08 02:55:55;;;;;;;16.58;9.65;;;18.90;99.90;;;;;;5037457;28;20069;-89
2023/09/08 02:58:21;;;;;;;10.98;8.90;;;18.90;99.90;;;;;;5053967;28;20504;-89
2023/09/08 03:00:47;;;;;;;13.15;10.30;;;18.90;99.90;;;;;;5037345;28;20080;-89
2023/09/08 03:03:13;;;;;;;14.10;10.75;;;18.80;99.90;;;;;;5054064;28;20108;-89
2023/09/08 03:05:38;;;;;;;12.80;10.27;;;18.80;99.90;;;;;;5037089;28;20033;-89
2023/09/08 03:08:05;;;;;;;11.68;6.75;;;18.80;99.90;;;;;;5053392;28;20033;-89
2023/09/08 03:10:33;;;;;;;11.38;9.90;;;18.70;99.90;;;;;;5053555;28;20036;-88
2023/09/08 03:13:00;;;;;;;11.15;9.38;;;18.70;99.90;;;;;;5054189;28;20041;-89
2023/09/08 03:15:27;;;;;;;12.15;9.85;;;18.70;99.90;;;;;;5054022;28;20385;-89
2023/09/08 03:17:54;;;;;;;13.00;9.52;;;18.70;99.90;;;;;;5053774;28;20048;-88
2023/09/08 03:20:20;;;;;;;11.90;9.90;;;18.70;99.90;;;;;;5053942;28;20045;-88
2023/09/08 03:22:46;;;;;;;11.93;9.63;;;18.70;99.90;;;;;;5054069;28;20083;-88
2023/09/08 03:25:13;;;;;;;13.15;10.43;;;18.70;99.90;;;;;;5053969;28;20074;-88
2023/09/08 03:27:39;;;;;;;12.93;10.38;;;18.60;99.90;;;;;;5053936;28;20567;-88
2023/09/08 03:30:05;;;;;;;13.60;10.18;;;18.60;99.90;;;;;;5036819;28;20121;-88
2023/09/08 03:32:32;;;;;;;15.55;10.25;;;18.60;99.90;;;;;;5053816;28;20508;-88
2023/09/08 03:34:57;;;;;;;12.75;10.30;;;18.60;99.90;;;;;;5037057;28;20033;-89
2023/09/08 03:37:23;;;;;;;13.85;10.57;;;18.50;99.90;;;;;;5053292;28;20436;-88
2023/09/08 03:39:49;;;;;;;15.13;10.63;;;18.50;99.90;;;;;;5053021;28;20596;-88
2023/09/08 03:42:14;;;;;;;13.10;10.57;;;18.50;99.90;;;;;;5036757;28;20079;-88
2023/09/08 03:44:40;;;;;;;11.98;10.48;;;18.40;99.90;;;;;;5053529;28;20041;-88
2023/09/08 03:47:06;;;;;;;11.27;10.07;;;18.40;99.90;;;;;;5053051;28;20047;-89
2023/09/08 03:49:32;;;;;;;11.98;10.73;;;18.40;99.90;;;;;;5036642;28;20115;-88
2023/09/08 03:51:58;;;;;;;13.95;10.80;;;18.40;99.90;;;;;;5052811;28;20120;-89
2023/09/08 03:54:24;;;;;;;15.52;10.70;;;18.40;99.90;;;;;;5052828;28;20128;-88
2023/09/08 03:56:49;;;;;;;13.45;10.73;;;18.30;99.90;;;;;;5053057;28;20124;-88
2023/09/08 03:59:15;;;;;;;13.65;10.95;;;18.30;99.90;;;;;;5036413;28;20040;-88
2023/09/08 04:01:40;;;;;;;12.23;10.00;;;18.30;99.90;;;;;;5052496;28;20447;-88
2023/09/08 04:04:06;;;;;;;12.85;8.05;;;18.30;99.90;;;;;;5036529;28;20045;-88
2023/09/08 04:06:31;;;;;;;13.77;11.05;;;18.20;99.90;;;;;;5053554;28;20414;-88
2023/09/08 04:08:57;;;;;;;13.60;11.25;;;18.20;99.90;;;;;;5037541;28;20052;-89
2023/09/08 04:11:23;;;;;;;14.20;10.93;;;18.20;99.90;;;;;;5053795;28;20072;-88
2023/09/08 04:13:48;;;;;;;13.50;11.25;;;18.20;99.90;;;;;;5053652;28;20043;-88
2023/09/08 04:16:14;;;;;;;13.15;7.68;;;18.20;99.90;;;;;;5053848;28;20040;-88
2023/09/08 04:18:39;;;;;;;15.10;10.90;;;18.10;99.90;;;;;;5053465;28;20033;-89
2023/09/08 04:21:07;;;;;;;14.38;12.20;;;18.10;99.90;;;;;;5053032;28;20475;-87
2023/09/08 04:23:33;;;;;;;13.95;8.68;;;18.10;99.90;;;;;;5052936;28;20158;-88
2023/09/08 04:25:58;;;;;;;12.65;11.00;;;18.00;99.90;;;;;;5036191;28;20127;-88
2023/09/08 04:28:24;;;;;;;14.20;12.70;;;18.00;99.90;;;;;;5035817;28;20033;-88
2023/09/08 04:30:50;;;;;;;13.68;11.48;;;18.00;99.90;;;;;;5035769;28;20649;-88
2023/09/08 04:33:15;;;;;;;13.30;11.55;;;18.00;99.90;;;;;;5036069;28;20123;-88
2023/09/08 04:35:41;;;;;;;13.90;11.35;;;18.00;99.90;;;;;;5052170;28;20128;-88
2023/09/08 04:38:07;;;;;;;17.00;12.27;;;18.00;99.90;;;;;;5052736;28;20033;-88
2023/09/08 04:40:33;;;;;;;13.60;11.52;;;18.00;99.90;;;;;;5035477;28;20076;-89
2023/09/08 04:42:59;;;;;;;15.63;12.30;;;17.90;99.90;;;;;;5035691;28;20122;-88
2023/09/08 04:45:24;;;;;;;16.70;12.18;;;17.90;99.90;;;;;;5035758;28;20046;-88
2023/09/08 04:47:50;;;;;;;13.95;12.32;;;17.80;99.90;;;;;;5035483;28;20064;-88
2023/09/08 04:50:16;;;;;;;13.90;11.05;;;17.80;99.90;;;;;;5051828;28;20037;-89
2023/09/08 04:52:41;;;;;;;16.23;12.48;;;17.80;99.90;;;;;;5035416;28;20512;-88
2023/09/08 04:55:07;;;;;;;14.52;7.80;;;17.80;99.90;;;;;;5035715;28;20063;-88
2023/09/08 04:57:33;;;;;;;14.88;12.57;;;17.80;99.90;;;;;;5035381;28;20033;-87
2023/09/08 04:59:58;;;;;;;13.30;11.60;;;17.70;99.90;;;;;;5051492;28;20040;-88
2023/09/08 05:02:24;;;;;;;15.82;13.30;;;17.70;99.90;;;;;;5034350;28;20040;-88
2023/09/08 05:04:50;;;;;;;15.93;12.57;;;17.70;99.90;;;;;;5051662;28;20044;-88
2023/09/08 05:07:15;;;;;;;14.68;12.70;;;17.70;99.90;;;;;;5051788;28;20059;-88
2023/09/08 05:09:41;;;;;;;14.38;12.10;;;17.70;99.90;;;;;;5034560;28;20548;-88
2023/09/08 05:12:07;;;;;;;16.77;12.77;;;17.70;99.90;;;;;;5051114;28;20040;-89
2023/09/08 05:14:32;;;;;;;13.80;12.30;;;17.70;99.90;;;;;;5051088;28;20041;-88
2023/09/08 05:16:58;;;;;;;15.20;13.60;;;17.70;99.90;;;;;;5034495;28;20029;-88
2023/09/08 05:19:24;;;;;;;15.52;13.50;;;17.80;99.90;;;;;;5051053;28;20133;-88
2023/09/08 05:21:54;;;;;;;15.38;13.23;;;17.70;99.90;;;;;;5034198;28;20047;-87
2023/09/08 05:24:20;;;;;;;15.38;8.88;;;17.70;99.90;;;;;;5051179;28;20124;-88
2023/09/08 05:26:46;;;;;;;13.77;12.38;;;17.70;99.90;;;;;;5050841;28;20515;-88
2023/09/08 05:29:11;;;;;;;13.15;8.55;;;17.70;99.90;;;;;;5034283;28;20033;-87
2023/09/08 05:31:37;;;;;;;13.48;11.80;;;17.70;99.90;;;;;;5051480;28;20067;-87
2023/09/08 05:34:03;;;;;;;14.63;12.40;;;17.70;99.90;;;;;;5051277;28;20029;-88
2023/09/08 05:36:29;;;;;;;14.60;13.10;;;17.70;99.90;;;;;;5034545;28;20059;-88
2023/09/08 05:38:55;;;;;;;14.15;12.65;;;17.80;99.90;;;;;;5021431;28;20073;-87
2023/09/08 05:41:21;;;;;;;14.68;13.13;;;17.80;99.90;;;;;;5031147;28;20037;-87
2023/09/08 05:43:47;;;;;;;14.70;12.90;;;17.80;99.90;;;;;;5007734;28;20543;-88
2023/09/08 05:46:13;;;;;;;15.20;12.82;;;17.80;99.90;;;;;;5021526;28;20033;-87
2023/09/08 05:48:38;;;;;;;14.18;12.73;;;17.80;99.90;;;;;;5020308;28;20084;-88
2023/09/08 05:51:06;;;;;;;15.30;13.73;;;17.80;99.90;;;;;;5022654;28;20125;-88
2023/09/08 05:53:32;;;;;;;14.75;12.52;;;17.80;99.90;;;;;;5024554;28;20499;-88
2023/09/08 05:55:58;;;;;;;13.90;12.50;;;17.90;99.90;;;;;;5029726;28;20037;-88
2023/09/08 05:58:27;;;;;;;16.00;13.13;;;17.90;99.90;;;;;;5047183;28;20087;-88
2023/09/08 06:00:55;;;;;;;13.82;9.85;;;17.90;99.90;;;;;;5030772;28;20034;-87
2023/09/08 06:03:21;;;;;;;16.05;13.02;;;17.90;99.90;;;;;;5047330;28;20038;-88
2023/09/08 06:05:46;;;;;;;15.13;12.30;;;18.00;99.90;;;;;;5047665;28;20033;-88
2023/09/08 06:08:12;;;;;;;15.55;13.05;;;18.10;99.90;;;;;;5014121;28;20045;-87
2023/09/08 06:10:38;;;;;;;14.95;13.05;;;18.00;99.90;;;;;;5014259;28;20050;-88
2023/09/08 06:13:04;;;;;;;14.43;12.32;;;18.10;99.90;;;;;;5047652;28;20530;-88
2023/09/08 06:15:29;;;;;;;14.68;9.77;;;18.20;99.90;;;;;;5047474;28;20065;-87
2023/09/08 06:17:55;;;;;;;14.95;12.60;;;18.20;99.90;;;;;;5030665;28;20100;-88
2023/09/08 06:20:21;;;;;;;14.48;11.77;;;18.20;99.90;;;;;;5047056;28;20088;-88
2023/09/08 06:22:47;;;;;;;14.45;11.90;;;18.30;99.90;;;;;;5047145;28;20041;-88
2023/09/08 06:25:12;;;;;;;16.00;12.57;;;18.30;99.90;;;;;;5004375;28;20539;-88
2023/09/08 06:27:39;;;;;;;13.98;12.32;;;18.40;99.90;;;;;;5008416;28;20394;-87
2023/09/08 06:30:05;;;;;;;15.30;13.13;;;18.40;99.90;;;;;;5019891;28;20405;-87
2023/09/08 06:32:31;;;;;;;13.70;12.13;;;18.40;99.90;;;;;;5031457;28;20050;-87
2023/09/08 06:34:56;;;;;;;14.95;12.05;;;18.50;99.90;;;;;;5031356;28;20532;-88
2023/09/08 06:37:22;;;;;;;14.52;12.82;;;18.50;99.90;;;;;;5014824;28;20053;-88
2023/09/08 06:39:47;;;;;;;14.90;12.07;;;18.60;99.90;;;;;;5014307;28;20517;-88
2023/09/08 06:42:13;;;;;;;17.33;12.85;;;18.60;99.90;;;;;;5014699;28;20072;-88
2023/09/08 06:44:38;;;;;;;14.07;9.95;;;18.70;99.90;;;;;;5019354;28;20085;-87
2023/09/08 06:47:06;;;;;;;14.68;12.32;;;18.70;99.90;;;;;;5049743;28;20551;-89
2023/09/08 06:49:32;;;;;;;13.63;12.13;;;18.70;99.90;;;;;;5033589;28;20041;-88
2023/09/08 06:51:58;;;;;;;15.95;12.73;;;18.80;99.90;;;;;;5050426;28;20121;-89
2023/09/08 06:54:23;;;;;;;14.75;12.32;;;18.90;99.90;;;;;;5050356;28;20033;-89
2023/09/08 06:56:49;;;;;;;13.43;12.02;;;18.90;99.90;;;;;;5017002;28;20110;-89
2023/09/08 06:59:15;;;;;;;13.18;11.77;;;19.00;99.90;;;;;;5033372;28;20146;-89
2023/09/08 07:01:40;;;;;;;14.75;12.07;;;19.10;99.90;;;;;;5017207;28;20041;-89
2023/09/08 07:04:06;;;;;;;13.38;11.27;;;19.10;99.90;;;;;;5049592;28;20047;-89
2023/09/08 07:06:31;;;;;;;14.18;11.75;;;19.20;99.90;;;;;;5049765;28;20045;-89
2023/09/08 07:08:57;;;;;;;15.60;11.07;;;19.20;99.90;;;;;;5033221;28;20041;-88
2023/09/08 07:11:23;;;;;;;14.02;11.43;;;19.30;99.90;;;;;;5033355;28;20413;-89
2023/09/08 07:13:48;;;;;;;14.65;11.05;;;19.40;99.90;;;;;;5049711;28;20057;-89
2023/09/08 07:16:14;;;;;;;15.40;11.88;;;19.50;99.90;;;;;;5049661;28;20041;-89
2023/09/08 07:18:39;;;;;;;10.95;7.22;;;19.50;99.90;;;;;;5050258;28;20412;-89
2023/09/08 07:21:05;;;;;;;15.70;11.23;;;19.50;99.90;;;;;;5050669;28;20041;-88
2023/09/08 07:23:30;;;;;;;14.38;10.65;;;19.60;99.90;;;;;;5050400;28;20041;-89
2023/09/08 07:25:56;;;;;;;13.93;11.07;;;19.70;99.90;;;;;;5017057;28;20171;-89
2023/09/08 07:28:22;;;;;;;12.75;11.32;;;19.80;99.90;;;;;;5033064;28;20073;-90
2023/09/08 07:30:47;;;;;;;13.20;11.40;;;19.90;99.90;;;;;;5029411;28;20042;-89
2023/09/08 07:33:13;;;;;;;13.43;11.32;;;20.00;99.90;;;;;;5024541;28;20064;-89
2023/09/08 07:35:40;;;;;;;12.50;10.77;;;20.10;99.90;;;;;;5020421;28;20042;-88
2023/09/08 07:38:06;;;;;;;13.13;10.65;;;20.20;99.90;;;;;;5015714;28;20542;-88
2023/09/08 07:40:33;;;;;;;15.07;10.55;;;20.20;99.90;;;;;;5049533;28;20048;-88
2023/09/08 07:42:58;;;;;;;14.07;10.48;;;20.30;99.90;;;;;;5033318;28;20042;-88
2023/09/08 07:45:25;;;;;;;13.27;10.20;;;20.40;99.90;;;;;;5049550;28;20040;-88
2023/09/08 07:47:51;;;;;;;12.68;10.35;;;20.50;99.90;;;;;;5033269;28;20511;-88
2023/09/08 07:50:25;;;;;;;13.00;10.00;;;20.60;99.90;;;;;;5013277;28;20101;-88
2023/09/08 07:52:52;;;;;;;14.60;9.77;;;20.70;99.90;;;;;;5014082;28;20042;-89
2023/09/08 07:55:18;;;;;;;13.95;9.77;;;20.70;99.90;;;;;;5029959;28;20045;-88
2023/09/08 07:57:48;;;;;;;14.02;9.50;;;20.80;99.90;;;;;;5013408;28;20045;-88
2023/09/08 08:00:15;;;;;;;11.20;9.27;;;20.90;99.90;;;;;;5012079;28;20482;-88
2023/09/08 08:02:49;;;;;;;11.85;9.63;;;21.00;99.90;;;;;;5013225;28;20052;-88
2023/09/08 08:05:15;;;;;;;11.45;9.18;;;21.10;99.90;;;;;;5029649;28;20046;-89
2023/09/08 08:07:42;;;;;;;11.32;9.88;;;21.20;99.90;;;;;;5013273;28;20570;-88
2023/09/08 08:10:08;;;;;;;11.98;9.27;;;21.30;99.90;;;;;;5029252;28;20120;-88
2023/09/08 08:12:34;;;;;;;12.98;9.18;;;21.40;99.90;;;;;;5013028;28;20088;-88
2023/09/08 08:15:00;;;;;;;12.77;8.68;;;21.50;99.90;;;;;;5013173;28;20490;-89
2023/09/08 08:17:27;;;;;;;13.98;9.50;;;21.50;99.90;;;;;;5012410;28;20041;-89
2023/09/08 08:19:54;;;;;;;10.18;8.52;;;21.60;99.90;;;;;;5028973;28;20068;-88
2023/09/08 08:22:20;;;;;;;11.00;8.70;;;21.70;99.90;;;;;;5012770;28;20042;-89
2023/09/08 08:24:45;;;;;;;12.60;8.70;;;21.80;99.90;;;;;;5012917;28;20046;-88
2023/09/08 08:27:11;;;;;;;11.82;8.65;;;21.90;99.90;;;;;;5012639;28;20045;-88
2023/09/08 08:29:37;;;;;;;12.13;8.95;;;22.00;99.90;;;;;;4996315;28;20029;-89
2023/09/08 08:32:02;;;;;;;11.48;8.35;;;22.10;99.90;;;;;;5020750;28;20045;-88
2023/09/08 08:34:28;;;;;;;12.23;8.43;;;22.10;99.90;;;;;;5015163;28;20042;-88
2023/09/08 08:36:54;;;;;;;11.23;7.70;;;22.20;99.90;;;;;;5031982;28;20405;-88
2023/09/08 08:39:20;;;;;;;11.60;8.05;;;22.30;99.90;;;;;;5014580;28;20528;-89
2023/09/08 08:41:45;;;;;;;12.93;7.95;;;22.40;99.90;;;;;;5047851;28;20076;-89
2023/09/08 08:44:11;;;;;;;12.10;8.05;;;22.50;99.90;;;;;;5032014;28;20148;-88
2023/09/08 08:46:38;;;;;;;11.90;7.28;;;22.70;99.90;;;;;;5014953;28;20034;-89
2023/09/08 08:49:04;;;;;;;12.35;7.82;;;22.70;99.90;;;;;;5029994;28;20044;-88
2023/09/08 08:51:35;;;;;;;11.18;8.25;;;22.80;99.90;;;;;;5025662;28;20034;-88
2023/09/08 08:54:04;;;;;;;11.43;8.00;;;23.00;99.90;;;;;;5023777;28;20473;-88
2023/09/08 08:56:31;;;;;;;16.95;8.27;;;23.10;99.90;;;;;;5027864;28;20033;-89
2023/09/08 08:58:58;;;;;;;12.38;7.57;;;23.20;99.90;;;;;;5031446;28;20045;-89
2023/09/08 09:01:25;;;;;;;9.85;7.15;;;23.30;99.90;;;;;;5031068;28;20037;-89
2023/09/08 09:03:52;;;;;;;11.30;7.30;;;23.40;99.90;;;;;;5031530;28;20058;-89
2023/09/08 09:06:18;;;;;;;10.45;7.30;;;23.50;99.90;;;;;;5031311;28;20504;-88
2023/09/08 09:08:44;;;;;;;9.52;7.03;;;23.60;99.90;;;;;;5031175;28;20116;-89
2023/09/08 09:11:11;;;;;;;10.68;7.25;;;23.70;99.90;;;;;;5031248;28;20524;-89
2023/09/08 09:13:37;;;;;;;10.32;7.35;;;23.70;99.90;;;;;;5031688;28;20505;-89
2023/09/08 09:16:04;;;;;;;12.88;7.57;;;23.80;99.90;;;;;;5047858;28;20064;-89
2023/09/08 09:18:30;;;;;;;11.20;6.70;;;23.90;99.90;;;;;;5031128;28;20501;-89
2023/09/08 09:21:00;;;;;;;11.35;6.68;;;24.00;99.90;;;;;;5030674;28;20037;-89
2023/09/08 09:23:34;;;;;;;10.40;6.65;;;24.10;99.90;;;;;;5014895;28;20049;-89
2023/09/08 09:26:03;;;;;;;12.63;6.35;;;24.20;99.90;;;;;;5030763;28;20397;-89
2023/09/08 09:28:29;;;;;;;11.07;7.07;;;24.30;99.90;;;;;;5031048;28;20080;-89
2023/09/08 09:30:55;;;;;;;12.73;6.22;;;24.40;99.90;;;;;;5030948;28;20519;-90
2023/09/08 09:33:22;;;;;;;10.07;6.25;;;24.50;99.90;;;;;;5030894;28;20049;-89
2023/09/08 09:35:50;;;;;;;10.15;6.30;;;24.60;98.30;;;;;;5014385;28;20038;-89
2023/09/08 09:38:18;;;;;;;8.43;5.50;;;24.60;99.90;;;;;;5030670;28;20052;-89
2023/09/08 09:40:44;;;;;;;9.82;5.72;;;24.70;96.90;;;;;;5023839;28;20069;-89
2023/09/08 09:43:13;;;;;;;10.73;6.20;;;24.80;93.80;;;;;;5021791;28;20040;-89
2023/09/08 09:45:40;;;;;;;9.98;5.45;;;24.90;93.20;;;;;;5021715;28;20037;-88
2023/09/08 09:48:07;;;;;;;10.65;5.82;;;25.00;93.60;;;;;;5019462;28;20033;-89
2023/09/08 09:50:34;;;;;;;10.35;4.97;;;25.00;92.20;;;;;;5037696;28;20543;-90
2023/09/08 09:53:03;;;;;;;11.88;5.68;;;25.10;92.50;;;;;;5038552;28;20065;-89
2023/09/08 09:55:28;;;;;;;11.25;6.03;;;25.20;91.50;;;;;;5036291;28;20041;-89
2023/09/08 09:58:03;;;;;;;12.27;5.97;;;25.30;91.90;;;;;;5020807;28;20034;-90
2023/09/08 10:00:30;;;;;;;9.82;5.50;;;25.30;90.70;;;;;;5038188;28;20449;-90
2023/09/08 10:02:56;;;;;;;8.77;5.35;;;25.50;88.90;;;;;;5019369;28;20041;-89
2023/09/08 10:05:26;;;;;;;9.50;5.63;;;25.50;86.70;;;;;;5021164;28;20044;-90
2023/09/08 10:07:51;;;;;;;9.13;4.95;;;25.60;90.40;;;;;;5020679;28;20068;-89
2023/09/08 10:10:20;;;;;;;9.57;5.43;;;25.70;88.90;;;;;;5018405;28;20130;-90
2023/09/08 10:12:52;;;;;;;9.82;5.55;;;25.70;86.50;;;;;;5037307;28;20416;-89
2023/09/08 10:15:22;;;;;;;9.18;5.35;;;25.80;89.30;;;;;;5020827;28;20033;-89
2023/09/08 10:17:57;;;;;;;8.15;5.00;;;25.90;88.00;;;;;;5019816;28;20124;-89
2023/09/08 10:20:24;;;;;;;10.45;5.10;;;26.00;85.50;;;;;;5023427;28;20053;-90
2023/09/08 10:22:54;;;;;;;9.18;5.25;;;26.00;84.80;;;;;;5020324;28;20042;-89
2023/09/08 10:25:21;;;;;;;10.18;5.55;;;26.10;84.00;;;;;;5035122;28;20038;-90
2023/09/08 10:27:48;;;;;;;9.98;5.43;;;26.20;84.30;;;;;;5019807;28;20037;-89
2023/09/08 10:30:16;;;;;;;8.18;4.85;;;26.20;86.40;;;;;;5020566;28;20563;-89
2023/09/08 10:32:43;;;;;;;9.05;5.13;;;26.40;84.80;;;;;;5018381;28;20038;-90
2023/09/08 10:35:09;;;;;;;8.93;5.32;;;26.40;82.20;;;;;;5010613;28;20053;-89
2023/09/08 10:37:35;;;;;;;8.55;5.28;;;26.50;82.50;;;;;;5010118;28;20105;-89
2023/09/08 10:40:20;;;;;;;9.20;4.78;;;26.60;82.00;;;;;;5008860;28;20125;-90
2023/09/08 10:42:46;;;;;;;9.60;4.88;;;26.70;84.80;;;;;;5008281;28;20185;-91
2023/09/08 10:45:17;;;;;;;8.02;4.97;;;26.70;84.70;;;;;;5008804;28;20173;-90
2023/09/08 10:47:46;;;;;;;7.90;5.15;;;26.90;83.40;;;;;;4998902;28;20061;-91
2023/09/08 10:50:19;;;;;;;10.48;4.97;;;26.90;82.60;;;;;;5036072;28;20046;-90
2023/09/08 10:52:45;;;;;;;9.93;4.78;;;27.00;81.80;;;;;;5020186;28;20397;-91
2023/09/08 10:55:12;;;;;;;8.65;4.57;;;27.10;81.30;;;;;;5038991;28;20030;-90
2023/09/08 10:57:44;;;;;;;7.88;5.13;;;27.20;83.90;;;;;;5019622;28;20101;-91
2023/09/08 11:00:12;;;;;;;12.10;4.90;;;27.30;82.30;;;;;;5037083;28;20121;-91
2023/09/08 11:02:38;;;;;;;11.60;5.28;;;27.40;80.90;;;;;;5003419;28;20049;-91
2023/09/08 11:05:13;;;;;;;9.35;4.80;;;27.50;81.00;;;;;;5044000;28;20056;-91
2023/09/08 11:07:40;;;;;;;9.10;4.68;;;27.60;81.20;;;;;;5030403;28;20048;-91
2023/09/08 11:10:07;;;;;;;9.88;5.15;;;27.60;76.90;;;;;;5046751;28;20041;-90
2023/09/08 11:12:33;;;;;;;11.38;4.97;;;27.70;76.50;;;;;;5031763;28;20443;-90
2023/09/08 11:15:04;;;;;;;11.07;4.82;;;27.80;75.20;;;;;;5047543;28;20037;-92
2023/09/08 11:17:39;;;;;;;9.93;5.13;;;27.80;74.80;;;;;;5031371;28;20048;-91
2023/09/08 11:20:08;;;;;;;9.05;4.93;;;27.80;75.30;;;;;;5031421;28;20284;-91
2023/09/08 11:22:34;;;;;;;9.95;4.70;;;27.90;74.40;;;;;;5031231;28;20045;-91
2023/09/08 11:25:04;;;;;;;8.13;4.60;;;28.00;75.40;;;;;;5031327;28;20044;-91
2023/09/08 11:27:30;;;;;;;10.13;5.10;;;28.10;74.40;;;;;;5031384;28;20068;-91
2023/09/08 11:29:57;;;;;;;9.80;5.38;;;28.10;74.00;;;;;;5030297;28;20045;-92
2023/09/08 11:32:23;;;;;;;8.93;5.10;;;28.20;74.10;;;;;;5033821;28;20409;-92
2023/09/08 11:34:49;;;;;;;9.25;4.95;;;28.30;73.70;;;;;;5033768;28;20048;-91
2023/09/08 11:37:17;;;;;;;9.32;4.97;;;28.40;73.60;;;;;;5033852;28;20041;-91
2023/09/08 11:39:46;;;;;;;8.77;4.63;;;28.50;74.70;;;;;;5033884;28;20060;-91
2023/09/08 11:42:14;;;;;;;10.00;5.10;;;28.60;73.50;;;;;;5048723;28;20504;-91
2023/09/08 11:44:40;;;;;;;8.73;5.00;;;28.70;76.20;;;;;;5037909;28;20044;-93
2023/09/08 11:47:10;;;;;;;8.82;4.90;;;28.80;74.10;;;;;;5037933;28;20061;-91
2023/09/08 11:49:43;;;;;;;8.95;4.72;;;28.80;72.20;;;;;;5019830;28;20070;-92
2023/09/08 11:52:10;;;;;;;9.77;5.10;;;28.90;72.00;;;;;;5021966;28;20033;-92
2023/09/08 11:54:37;;;;;;;8.75;5.10;;;28.90;72.00;;;;;;5025157;28;20569;-92
2023/09/08 11:57:05;;;;;;;10.70;5.10;;;29.00;71.60;;;;;;5020858;28;20069;-92
2023/09/08 11:59:34;;;;;;;8.13;4.28;;;29.10;73.20;;;;;;5005625;28;20037;-92
2023/09/08 12:02:01;;;;;;;10.00;4.65;;;29.30;72.40;;;;;;5033069;28;20120;-92
2023/09/08 12:04:27;;;;;;;8.80;4.60;;;29.30;71.00;;;;;;5024404;28;20041;-92
2023/09/08 12:06:55;;;;;;;10.60;4.63;;;29.50;70.00;;;;;;5013692;28;20412;-92
2023/09/08 12:09:21;;;;;;;9.85;4.80;;;29.60;71.30;;;;;;5014848;28;20081;-92
2023/09/08 12:11:47;;;;;;;9.88;5.00;;;29.60;70.50;;;;;;5049134;28;20041;-90
2023/09/08 12:14:15;;;;;;;8.95;4.90;;;29.80;71.20;;;;;;5049670;28;20083;-91
2023/09/08 12:16:41;;;;;;;8.90;4.50;;;29.90;69.40;;;;;;5032913;28;20037;-91
2023/09/08 12:19:32;;;;;;;8.88;4.90;;;29.90;67.70;;;;;;5032069;28;20088;-91
2023/09/08 12:22:02;;;;;;;9.27;4.43;;;30.00;67.40;;;;;;5032397;28;20425;-92
2023/09/08 12:24:49;;;;;;;8.98;4.72;;;30.10;66.60;;;;;;5049351;28;20045;-92
2023/09/08 12:27:16;;;;;;;8.43;4.20;;;30.20;65.70;;;;;;5032759;28;20535;-92
2023/09/08 12:30:09;;;;;;;9.77;4.70;;;30.30;66.00;;;;;;5032645;28;20048;-92
2023/09/08 12:32:36;;;;;;;9.45;4.10;;;30.40;66.50;;;;;;5033138;28;20076;-92
2023/09/08 12:35:04;;;;;;;7.47;4.10;;;30.50;65.30;;;;;;5032172;28;20037;-90